createdAt,value
2018-06-22T00:00:31.077Z,88.69
2018-06-22T00:02:59.973Z,88.52
2018-06-22T00:05:28.941Z,88.73
2018-06-22T00:07:57.808Z,88.68
2018-06-22T00:10:26.672Z,88.43
2018-06-22T00:12:55.889Z,88.26
2018-06-22T00:15:24.796Z,88.97
2018-06-22T00:17:53.694Z,88.23
2018-06-22T00:20:22.569Z,88.47
2018-06-22T00:22:51.471Z,88.22
2018-06-22T00:25:20.359Z,88.80
2018-06-22T00:27:49.300Z,88.79
2018-06-22T00:30:18.181Z,88.68
2018-06-22T00:32:47.124Z,88.71
2018-06-22T00:35:16.080Z,88.42
2018-06-22T00:37:44.939Z,88.72
2018-06-22T00:40:13.816Z,88.52
2018-06-22T00:42:42.757Z,88.70
2018-06-22T00:45:11.683Z,88.96
2018-06-22T00:47:41.302Z,88.96
2018-06-22T00:50:10.202Z,88.63
2018-06-22T00:52:39.130Z,88.86
2018-06-22T00:55:08.026Z,88.46
2018-06-22T00:57:36.893Z,88.72
2018-06-22T01:00:06.059Z,89.11
2018-06-22T01:02:34.947Z,88.83
2018-06-22T01:05:03.818Z,88.90
2018-06-22T01:07:32.687Z,89.08
2018-06-22T01:10:01.555Z,88.64
2018-06-22T01:12:30.427Z,88.62
2018-06-22T01:14:59.329Z,88.75
2018-06-22T01:17:28.612Z,88.82
2018-06-22T01:19:57.452Z,88.42
2018-06-22T01:22:26.976Z,88.42
2018-06-22T01:24:55.801Z,88.80
2018-06-22T01:27:24.738Z,88.89
2018-06-22T01:29:53.630Z,88.92
2018-06-22T01:32:22.470Z,89.29
2018-06-22T01:34:51.372Z,89.21
2018-06-22T01:37:20.251Z,89.01
2018-06-22T01:39:49.990Z,89.13
2018-06-22T01:42:18.845Z,88.91
2018-06-22T01:44:47.678Z,88.59
2018-06-22T01:47:16.561Z,88.89
2018-06-22T01:49:45.483Z,88.83
2018-06-22T01:52:14.340Z,88.84
2018-06-22T01:54:43.183Z,88.65
2018-06-22T01:57:12.013Z,89.13
2018-06-22T01:59:40.908Z,88.49
2018-06-22T02:02:09.760Z,88.76
2018-06-22T02:04:38.609Z,88.86
2018-06-22T02:07:07.577Z,88.47
2018-06-22T02:09:36.332Z,88.64
2018-06-22T02:12:05.193Z,88.88
2018-06-22T02:14:34.118Z,88.41
2018-06-22T02:17:02.989Z,88.16
2018-06-22T02:19:31.920Z,88.46
2018-06-22T02:22:00.757Z,88.26
2018-06-22T02:24:29.603Z,88.38
2018-06-22T02:26:58.457Z,88.53
2018-06-22T02:29:27.318Z,88.90
2018-06-22T02:31:56.154Z,88.59
2018-06-22T02:34:25.130Z,88.83
2018-06-22T02:36:53.997Z,88.74
2018-06-22T02:39:23.316Z,88.71
2018-06-22T02:41:52.189Z,89.12
2018-06-22T02:44:21.103Z,89.00
2018-06-22T02:46:50.020Z,88.38
2018-06-22T02:49:18.895Z,88.53
2018-06-22T02:51:47.799Z,88.73
2018-06-22T02:54:16.657Z,88.66
2018-06-22T02:56:45.503Z,88.16
2018-06-22T02:59:14.366Z,88.42
2018-06-22T03:01:43.281Z,88.44
2018-06-22T03:04:12.159Z,88.45
2018-06-22T03:06:41.045Z,88.63
2018-06-22T03:09:10.108Z,88.99
2018-06-22T03:11:38.970Z,88.79
2018-06-22T03:14:07.892Z,88.53
2018-06-22T03:16:36.752Z,88.60
2018-06-22T03:19:05.649Z,88.86
2018-06-22T03:21:34.510Z,88.72
2018-06-22T03:24:03.380Z,88.93
2018-06-22T03:26:32.237Z,89.10
2018-06-22T03:29:01.077Z,89.26
2018-06-22T03:31:35.995Z,89.01
2018-06-22T03:34:05.597Z,88.56
2018-06-22T03:36:34.509Z,88.33
2018-06-22T03:39:03.546Z,88.63
2018-06-22T03:41:32.430Z,88.40
2018-06-22T03:44:01.220Z,88.44
2018-06-22T03:46:30.127Z,88.59
2018-06-22T03:48:59.040Z,88.51
2018-06-22T03:51:27.922Z,88.50
2018-06-22T03:53:56.833Z,88.04
2018-06-22T03:56:25.725Z,87.60
2018-06-22T03:58:54.631Z,88.24
2018-06-22T04:01:23.453Z,88.36
2018-06-22T04:03:52.313Z,88.32
2018-06-22T04:06:21.185Z,87.87
2018-06-22T04:08:50.004Z,87.81
2018-06-22T04:11:18.949Z,87.90
2018-06-22T04:13:47.875Z,88.29
2018-06-22T04:16:16.734Z,87.70
2018-06-22T04:18:45.641Z,86.80
2018-06-22T04:21:14.541Z,87.38
2018-06-22T04:23:43.379Z,87.08
2018-06-22T04:26:12.229Z,86.84
2018-06-22T04:28:41.064Z,86.83
2018-06-22T04:31:10.357Z,86.55
2018-06-22T04:33:39.220Z,86.48
2018-06-22T04:36:08.115Z,86.40
2018-06-22T04:38:37.101Z,85.95
2018-06-22T04:41:06.425Z,86.21
2018-06-22T04:43:35.300Z,85.71
2018-06-22T04:46:04.165Z,86.24
2018-06-22T04:48:33.032Z,86.12
2018-06-22T04:51:01.864Z,84.75
2018-06-22T04:53:30.659Z,85.74
2018-06-22T04:55:59.512Z,85.04
2018-06-22T04:58:28.504Z,84.61
2018-06-22T05:00:57.374Z,82.38
2018-06-22T05:03:26.220Z,79.48
2018-06-22T05:05:55.072Z,74.49
2018-06-22T05:08:23.929Z,71.27
2018-06-22T05:10:52.830Z,70.06
2018-06-22T05:13:21.729Z,70.87
2018-06-22T05:15:50.606Z,66.69
2018-06-22T05:18:20.181Z,60.80
2018-06-22T05:20:49.088Z,57.52
2018-06-22T05:23:17.967Z,55.50
2018-06-22T05:25:46.849Z,56.43
2018-06-22T05:43:21.082Z,56.23
2018-06-22T05:45:49.969Z,67.34
2018-06-22T05:48:18.829Z,71.87
2018-06-22T05:50:47.770Z,73.50
2018-06-22T05:53:16.624Z,75.83
2018-06-22T05:55:45.489Z,76.39
2018-06-22T05:58:14.909Z,78.25
2018-06-22T06:00:43.810Z,78.76
2018-06-22T06:03:12.665Z,77.07
2018-06-22T06:05:41.631Z,73.29
2018-06-22T06:08:10.581Z,72.13
2018-06-22T06:10:39.438Z,75.67
2018-06-22T06:13:08.319Z,76.30
2018-06-22T06:15:37.350Z,77.23
2018-06-22T06:18:06.200Z,77.63
2018-06-22T06:20:36.190Z,73.00
2018-06-22T06:23:05.077Z,65.78
2018-06-22T06:25:33.927Z,62.12
2018-06-22T06:28:02.832Z,60.50
2018-06-22T06:30:33.389Z,64.52
2018-06-22T06:33:02.293Z,59.85
2018-06-22T06:35:31.148Z,59.76
2018-06-22T06:38:00.097Z,62.66
2018-06-22T06:40:29.010Z,62.36
2018-06-22T06:42:57.881Z,62.53
2018-06-22T06:45:26.847Z,67.79
2018-06-22T06:47:55.775Z,71.18
2018-06-22T06:50:24.758Z,73.07
2018-06-22T06:52:54.466Z,75.17
2018-06-22T06:55:24.983Z,78.66
2018-06-22T06:57:54.456Z,77.28
2018-06-22T07:00:25.400Z,80.04
2018-06-22T07:02:54.380Z,80.13
2018-06-22T07:05:23.396Z,79.96
2018-06-22T07:07:52.766Z,79.79
2018-06-22T07:10:23.358Z,79.17
2018-06-22T07:12:52.316Z,79.98
2018-06-22T07:15:21.458Z,77.32
2018-06-22T07:17:51.049Z,79.27
2018-06-22T07:20:20.813Z,78.68
2018-06-22T07:22:49.738Z,78.01
2018-06-22T07:25:20.700Z,76.89
2018-06-22T07:27:56.345Z,69.29
2018-06-22T07:30:28.105Z,64.82
2018-06-22T07:32:57.324Z,66.48
2018-06-22T07:35:26.242Z,67.41
2018-06-22T07:37:55.968Z,67.16
2018-06-22T07:40:24.982Z,59.86
2018-06-22T07:42:54.053Z,62.90
2018-06-22T07:45:22.955Z,62.58
2018-06-22T07:47:52.052Z,65.08
2018-06-22T07:50:21.050Z,67.22
2018-06-22T07:52:50.002Z,70.53
2018-06-22T07:55:19.957Z,72.81
2018-06-22T07:57:49.743Z,74.17
2018-06-22T08:00:19.658Z,75.73
2018-06-22T08:02:48.693Z,75.02
2018-06-22T08:05:17.841Z,71.85
2018-06-22T08:07:46.821Z,65.86
2018-06-22T08:10:15.797Z,64.11
2018-06-22T08:12:45.078Z,66.24
2018-06-22T08:15:14.117Z,67.36
2018-06-22T08:17:43.148Z,70.71
2018-06-22T08:20:12.239Z,71.84
2018-06-22T08:22:41.256Z,69.41
2018-06-22T08:25:10.188Z,66.00
2018-06-22T08:27:39.115Z,63.72
2018-06-22T08:30:08.529Z,68.06
2018-06-22T08:32:37.540Z,71.46
2018-06-22T08:35:06.643Z,70.40
2018-06-22T08:37:35.574Z,69.97
2018-06-22T08:40:04.559Z,65.39
2018-06-22T08:42:33.498Z,61.95
2018-06-22T08:45:02.470Z,62.13
2018-06-22T08:47:36.014Z,60.52
2018-06-22T08:50:05.105Z,59.20
2018-06-22T08:52:34.143Z,65.17
2018-06-22T08:55:03.206Z,69.48
2018-06-22T08:57:32.312Z,70.52
2018-06-22T09:00:01.308Z,74.24
2018-06-22T09:02:30.300Z,73.95
2018-06-22T09:04:59.421Z,76.74
2018-06-22T09:07:28.413Z,75.71
2018-06-22T09:09:57.404Z,75.30
2018-06-22T09:12:26.371Z,74.94
2018-06-22T09:14:55.379Z,66.72
2018-06-22T09:17:24.373Z,64.47
2018-06-22T09:19:53.522Z,62.22
2018-06-22T09:22:22.515Z,60.36
2018-06-22T09:24:51.449Z,57.23
2018-06-22T09:27:20.388Z,57.23
2018-06-22T09:29:49.597Z,56.72
2018-06-22T09:32:18.864Z,59.48
2018-06-22T09:34:47.906Z,58.55
2018-06-22T09:37:17.194Z,57.22
2018-06-22T09:39:46.188Z,62.68
2018-06-22T09:42:15.165Z,60.81
2018-06-22T09:44:44.145Z,56.64
2018-06-22T09:47:13.236Z,58.40
2018-06-22T09:49:42.192Z,60.58
2018-06-22T09:52:11.196Z,59.01
2018-06-22T09:54:40.150Z,55.66
2018-06-22T09:57:09.173Z,57.17
2018-06-22T09:59:38.178Z,59.92
2018-06-22T10:02:07.066Z,62.06
2018-06-22T10:04:35.949Z,55.52
2018-06-22T10:07:05.052Z,56.25
2018-06-22T10:09:34.515Z,54.45
2018-06-22T10:12:03.742Z,52.83
2018-06-22T10:14:32.878Z,54.87
2018-06-22T10:17:01.940Z,54.53
2018-06-22T10:19:31.030Z,52.91
2018-06-22T10:22:00.288Z,55.47
2018-06-22T10:24:29.434Z,51.61
2018-06-22T10:26:58.613Z,47.39
2018-06-22T10:29:27.611Z,51.56
2018-06-22T10:31:56.469Z,51.82
2018-06-22T10:34:25.741Z,50.35
2018-06-22T10:36:54.944Z,49.23
2018-06-22T10:39:24.059Z,54.13
2018-06-22T10:42:06.669Z,52.38
2018-06-22T10:44:35.501Z,50.08
2018-06-22T10:47:04.449Z,53.27
2018-06-22T10:49:33.281Z,52.46
2018-06-22T10:52:02.175Z,51.90
2018-06-22T10:54:31.215Z,49.30
2018-06-22T10:57:00.260Z,47.75
2018-06-22T10:59:29.338Z,50.10
2018-06-22T11:01:58.457Z,50.84
2018-06-22T11:04:27.369Z,53.02
2018-06-22T11:06:56.257Z,51.73
2018-06-22T11:09:25.237Z,50.75
2018-06-22T11:11:54.309Z,51.61
2018-06-22T11:14:23.288Z,53.09
2018-06-22T11:16:52.264Z,54.30
2018-06-22T11:19:21.179Z,52.75
2018-06-22T11:21:50.168Z,50.23
2018-06-22T11:24:19.190Z,51.83
2018-06-22T11:26:48.259Z,52.83
2018-06-22T11:29:17.189Z,53.02
2018-06-22T11:31:46.195Z,51.40
2018-06-22T11:34:15.172Z,52.74
2018-06-22T11:36:44.052Z,50.56
2018-06-22T11:39:12.966Z,50.29
2018-06-22T11:41:42.381Z,50.53
2018-06-22T11:44:12.158Z,48.73
2018-06-22T11:46:41.303Z,46.82
2018-06-22T11:49:10.206Z,46.02
2018-06-22T11:51:39.334Z,45.92
2018-06-22T11:54:08.255Z,44.53
2018-06-22T11:56:38.125Z,48.21
2018-06-22T11:59:07.273Z,46.13
2018-06-22T12:01:36.567Z,46.09
2018-06-22T12:04:05.711Z,48.83
2018-06-22T12:06:35.477Z,47.26
2018-06-22T12:09:06.450Z,48.47
2018-06-22T12:11:35.360Z,47.40
2018-06-22T12:14:06.168Z,46.97
2018-06-22T12:16:36.504Z,48.53
2018-06-22T12:19:05.554Z,48.95
2018-06-22T12:21:34.473Z,48.15
2018-06-22T12:24:03.882Z,45.85
2018-06-22T12:26:32.833Z,45.05
2018-06-22T12:29:01.753Z,46.59
2018-06-22T12:31:30.592Z,46.47
2018-06-22T12:34:03.441Z,49.74
2018-06-22T12:36:32.274Z,47.17
2018-06-22T12:39:01.541Z,48.76
2018-06-22T12:41:30.662Z,47.55
2018-06-22T12:43:59.590Z,47.80
2018-06-22T12:46:35.260Z,48.18
2018-06-22T12:49:05.010Z,50.86
2018-06-22T12:51:33.963Z,52.02
2018-06-22T12:54:03.088Z,47.40
2018-06-22T12:56:31.967Z,46.84
2018-06-22T12:59:01.056Z,50.41
2018-06-22T13:01:30.038Z,49.82
2018-06-22T13:03:59.182Z,47.58
2018-06-22T13:06:30.474Z,49.47
2018-06-22T13:08:59.452Z,50.28
2018-06-22T13:11:30.709Z,51.28
2018-06-22T13:13:59.640Z,52.44
2018-06-22T13:16:28.606Z,52.74
2018-06-22T13:18:57.504Z,51.38
2018-06-22T13:21:26.451Z,50.66
2018-06-22T13:23:55.434Z,50.06
2018-06-22T13:26:24.436Z,50.49
2018-06-22T13:28:53.421Z,48.70
2018-06-22T13:31:22.327Z,46.64
2018-06-22T13:33:51.265Z,47.37
2018-06-22T13:36:20.350Z,48.75
2018-06-22T13:38:49.405Z,47.67
2018-06-22T13:41:18.408Z,45.98
2018-06-22T13:43:47.287Z,46.53
2018-06-22T13:46:16.122Z,46.62
2018-06-22T13:48:46.076Z,47.50
2018-06-22T13:51:18.178Z,49.28
2018-06-22T13:53:47.051Z,48.72
2018-06-22T13:56:15.935Z,45.45
2018-06-22T13:58:44.850Z,46.59
2018-06-22T14:01:13.917Z,46.48
2018-06-22T14:03:48.009Z,47.96
2018-06-22T14:06:22.123Z,46.45
2018-06-22T14:08:51.120Z,45.83
2018-06-22T14:11:20.073Z,47.34
2018-06-22T14:13:48.986Z,49.75
2018-06-22T14:16:17.966Z,51.66
2018-06-22T14:18:46.833Z,52.59
2018-06-22T14:21:15.732Z,52.86
2018-06-22T14:23:44.615Z,50.81
2018-06-22T14:26:17.893Z,51.66
2018-06-22T14:28:46.928Z,49.91
2018-06-22T14:31:16.168Z,50.68
2018-06-22T14:33:57.686Z,49.86
2018-06-22T14:36:40.134Z,47.13
2018-06-22T14:39:09.937Z,47.16
2018-06-22T14:41:43.617Z,47.23
2018-06-22T14:44:12.500Z,49.20
2018-06-22T14:46:41.479Z,48.88
2018-06-22T14:49:10.394Z,49.52
2018-06-22T14:51:43.338Z,49.24
2018-06-22T14:54:20.318Z,50.60
2018-06-22T14:56:56.601Z,48.63
2018-06-22T14:59:32.766Z,45.37
2018-06-22T15:02:09.434Z,47.78
2018-06-22T15:04:44.897Z,50.24
2018-06-22T15:07:22.440Z,48.75
2018-06-22T15:09:53.732Z,49.54
2018-06-22T15:12:22.776Z,49.86
2018-06-22T15:14:59.164Z,48.39
2018-06-22T15:17:37.794Z,47.91
2018-06-22T15:20:09.726Z,48.04
2018-06-22T15:22:38.692Z,49.20
2018-06-22T15:25:09.859Z,48.29
2018-06-22T15:27:38.758Z,50.50
2018-06-22T15:30:11.856Z,52.33
2018-06-22T15:32:44.235Z,52.02
2018-06-22T15:35:19.687Z,53.82
2018-06-22T15:37:53.944Z,52.23
2018-06-22T15:41:27.302Z,53.36
2018-06-22T15:44:01.530Z,53.34
2018-06-22T15:46:39.587Z,53.04
2018-06-22T15:49:14.069Z,54.12
2018-06-22T15:51:49.770Z,53.69
2018-06-22T15:54:27.392Z,57.08
2018-06-22T15:57:01.319Z,54.55
2018-06-22T15:59:30.518Z,54.59
2018-06-22T16:02:04.077Z,56.21
2018-06-22T16:04:32.955Z,55.69
2018-06-22T16:07:01.913Z,57.57
2018-06-22T16:09:31.050Z,57.29
2018-06-22T16:12:05.150Z,59.00
2018-06-22T16:14:39.139Z,57.19
2018-06-22T16:17:13.243Z,57.37
2018-06-22T16:20:50.245Z,57.22
2018-06-22T16:23:24.310Z,58.03
2018-06-22T16:25:58.357Z,57.89
2018-06-22T16:28:27.469Z,58.41
2018-06-22T16:30:56.342Z,58.44
2018-06-22T16:33:25.202Z,58.84
2018-06-22T16:35:54.070Z,59.07
2018-06-22T16:38:22.961Z,60.07
2018-06-22T16:40:51.882Z,59.13
2018-06-22T16:43:20.814Z,60.17
2018-06-22T16:45:49.714Z,60.83
2018-06-22T16:48:19.311Z,61.34
2018-06-22T16:50:48.230Z,61.42
2018-06-22T16:53:17.721Z,63.84
2018-06-22T16:55:46.586Z,62.03
2018-06-22T16:58:20.702Z,63.50
2018-06-22T17:00:51.109Z,63.28
2018-06-22T17:03:20.656Z,63.66
2018-06-22T17:05:49.636Z,62.93
2018-06-22T17:08:23.950Z,62.46
2018-06-22T17:12:00.061Z,63.57
2018-06-22T17:14:34.006Z,64.51
2018-06-22T17:17:08.092Z,64.11
2018-06-22T17:19:36.975Z,64.94
2018-06-22T17:22:05.869Z,65.38
2018-06-22T17:24:34.761Z,65.58
2018-06-22T17:27:03.689Z,66.92
2018-06-22T17:29:32.640Z,67.24
2018-06-22T17:32:01.553Z,67.40
2018-06-22T17:34:30.501Z,68.25
2018-06-22T17:36:59.398Z,66.92
2018-06-22T17:39:28.316Z,66.71
2018-06-22T17:41:57.138Z,66.03
2018-06-22T17:44:26.069Z,66.32
2018-06-22T17:46:55.015Z,66.25
2018-06-22T17:49:23.891Z,67.12
2018-06-22T17:51:52.762Z,66.10
2018-06-22T17:54:21.674Z,66.18
2018-06-22T17:56:50.649Z,65.52
2018-06-22T17:59:24.661Z,65.86
2018-06-22T18:01:58.678Z,66.61
2018-06-22T18:04:32.761Z,66.47
2018-06-22T18:07:07.505Z,65.78
2018-06-22T18:09:41.718Z,65.80
2018-06-22T18:12:15.835Z,65.14
2018-06-22T18:14:44.780Z,66.13
2018-06-22T18:17:14.046Z,65.71
2018-06-22T18:19:42.972Z,65.14
2018-06-22T18:22:11.916Z,66.56
2018-06-22T18:24:40.818Z,65.92
2018-06-22T18:27:09.698Z,66.16
2018-06-22T18:29:38.519Z,66.94
2018-06-22T18:32:07.484Z,66.53
2018-06-22T18:34:39.402Z,67.82
2018-06-22T18:37:08.305Z,66.29
2018-06-22T18:39:37.235Z,67.29
2018-06-22T18:42:06.116Z,66.96
2018-06-22T18:44:35.037Z,67.50
2018-06-22T18:47:04.092Z,67.42
2018-06-22T18:49:32.936Z,68.75
2018-06-22T18:52:06.851Z,68.90
2018-06-22T18:54:40.864Z,69.66
2018-06-22T18:57:14.768Z,70.41
2018-06-22T18:59:47.851Z,72.03
2018-06-22T19:02:22.046Z,72.20
2018-06-22T19:04:51.074Z,73.25
2018-06-22T19:07:20.001Z,73.64
2018-06-22T19:09:49.250Z,72.84
2018-06-22T19:12:18.504Z,73.13
2018-06-22T19:14:47.561Z,72.74
2018-06-22T19:17:16.622Z,73.22
2018-06-22T19:19:45.728Z,72.86
2018-06-22T19:22:14.931Z,71.85
2018-06-22T19:24:45.036Z,72.99
2018-06-22T19:27:15.412Z,72.75
2018-06-22T19:29:49.151Z,73.88
2018-06-22T19:32:18.213Z,73.15
2018-06-22T19:34:52.490Z,72.57
2018-06-22T19:37:22.494Z,73.04
2018-06-22T19:39:51.761Z,74.73
2018-06-22T19:42:20.767Z,75.68
2018-06-22T19:44:54.913Z,77.85
2018-06-22T19:47:28.989Z,77.37
2018-06-22T19:50:03.171Z,79.15
2018-06-22T19:52:39.133Z,79.29
2018-06-22T19:55:11.124Z,79.68
2018-06-22T19:57:40.044Z,80.12
2018-06-22T20:00:17.793Z,79.95
2018-06-22T20:02:57.222Z,79.19
2018-06-22T20:05:26.958Z,80.08
2018-06-22T20:07:56.029Z,79.88
2018-06-22T20:10:25.083Z,79.12
2018-06-22T20:12:55.524Z,80.20
2018-06-22T20:15:34.758Z,78.94
2018-06-22T20:18:15.018Z,79.63
2018-06-22T20:20:52.279Z,79.82
2018-06-22T20:23:34.481Z,79.43
2018-06-22T20:26:03.765Z,78.75
2018-06-22T20:28:33.104Z,79.79
2018-06-22T20:31:02.164Z,79.21
2018-06-22T20:33:31.418Z,79.02
2018-06-22T20:36:05.588Z,79.37
2018-06-22T20:38:40.007Z,78.91
2018-06-22T20:41:14.847Z,79.15
2018-06-22T20:43:49.157Z,78.15
2018-06-22T20:46:23.764Z,78.93
2018-06-22T20:48:57.938Z,78.71
2018-06-22T20:51:31.101Z,78.78
2018-06-22T20:54:02.625Z,79.54
2018-06-22T20:56:31.570Z,79.28
2018-06-22T20:59:00.632Z,78.04
2018-06-22T21:01:29.647Z,78.86
2018-06-22T21:03:58.579Z,78.78
2018-06-22T21:06:27.537Z,78.75
2018-06-22T21:08:57.126Z,77.21
2018-06-22T21:11:26.132Z,77.32
2018-06-22T21:13:55.687Z,77.73
2018-06-22T21:16:24.541Z,77.39
2018-06-22T21:18:53.764Z,77.24
2018-06-22T21:21:27.629Z,78.13
2018-06-22T21:23:56.542Z,78.00
2018-06-22T21:26:25.441Z,77.69
2018-06-22T21:30:02.311Z,76.50
2018-06-22T21:32:37.030Z,77.36
2018-06-22T21:35:11.247Z,77.45
2018-06-22T21:37:45.539Z,76.86
2018-06-22T21:40:14.649Z,78.04
2018-06-22T21:42:43.757Z,77.86
2018-06-22T21:45:13.282Z,77.60
2018-06-22T21:47:42.287Z,76.75
2018-06-22T21:50:12.818Z,76.89
2018-06-22T21:52:41.747Z,76.06
2018-06-22T21:55:11.628Z,76.52
2018-06-22T21:57:40.590Z,74.90
2018-06-22T22:00:11.889Z,75.34
2018-06-22T22:02:40.860Z,74.88
2018-06-22T22:05:10.133Z,74.61
2018-06-22T22:07:39.151Z,73.06
2018-06-22T22:10:08.108Z,73.97
2018-06-22T22:12:45.007Z,73.15
2018-06-22T22:15:21.829Z,74.37
2018-06-22T22:17:51.039Z,73.19
2018-06-22T22:20:19.954Z,73.27
2018-06-22T22:22:49.062Z,73.50
2018-06-22T22:25:17.988Z,72.71
2018-06-22T22:27:46.893Z,73.01
2018-06-22T22:30:16.202Z,72.49
2018-06-22T22:32:45.170Z,73.05
2018-06-22T22:35:15.510Z,73.30
2018-06-22T22:37:44.472Z,73.46
2018-06-22T22:40:13.496Z,73.12
2018-06-22T22:42:42.887Z,73.68
2018-06-22T22:45:11.815Z,73.43
2018-06-22T22:47:42.389Z,73.74
2018-06-22T22:50:11.407Z,71.53
2018-06-22T22:52:40.788Z,71.77
2018-06-22T22:55:09.851Z,72.93
2018-06-22T22:57:38.740Z,72.86
2018-06-22T23:00:20.443Z,72.26
2018-06-22T23:03:00.227Z,72.53
2018-06-22T23:05:29.573Z,71.26
2018-06-22T23:08:00.081Z,72.72
2018-06-22T23:10:29.080Z,72.47
2018-06-22T23:12:58.073Z,72.60
2018-06-22T23:15:27.029Z,71.92
2018-06-22T23:17:55.905Z,72.12
2018-06-22T23:20:24.881Z,72.00
2018-06-22T23:23:05.359Z,72.13
2018-06-22T23:25:34.409Z,71.73
2018-06-22T23:28:03.356Z,71.16
2018-06-22T23:30:32.326Z,71.65
2018-06-22T23:33:01.225Z,71.96
2018-06-22T23:35:30.140Z,72.26
2018-06-22T23:37:59.089Z,72.61
2018-06-22T23:40:28.010Z,70.48
2018-06-22T23:42:56.986Z,70.53
2018-06-22T23:45:25.902Z,71.08
2018-06-22T23:47:54.864Z,72.39
2018-06-22T23:50:23.794Z,71.73
2018-06-22T23:52:52.749Z,71.58
2018-06-22T23:55:21.647Z,72.13
2018-06-22T23:57:50.549Z,70.98
